sensor_id;sensor_type;location;lat;lon;timestamp;pressure;altitude;pressure_sealevel;temperature;humidity
73016;BME280;61893;50.074;14.440;2023-07-09T00:02:30;98810.66;;;20.64;44.77
73016;BME280;61893;50.074;14.440;2023-07-09T00:04:56;98811.28;;;20.66;44.90
73016;BME280;61893;50.074;14.440;2023-07-09T00:07:31;98818.56;;;20.59;45.18
73016;BME280;61893;50.074;14.440;2023-07-09T00:09:57;98817.28;;;20.48;46.01
73016;BME280;61893;50.074;14.440;2023-07-09T00:12:24;98810.88;;;20.50;45.89
73016;BME280;61893;50.074;14.440;2023-07-09T00:14:50;98817.75;;;20.32;46.23
73016;BME280;61893;50.074;14.440;2023-07-09T00:17:28;98823.75;;;20.28;46.74
73016;BME280;61893;50.074;14.440;2023-07-09T00:19:56;98822.53;;;20.23;47.04
73016;BME280;61893;50.074;14.440;2023-07-09T00:22:37;98830.59;;;20.17;46.96
73016;BME280;61893;50.074;14.440;2023-07-09T00:25:03;98828.94;;;20.09;47.48
73016;BME280;61893;50.074;14.440;2023-07-09T00:27:32;98820.84;;;20.09;47.75
73016;BME280;61893;50.074;14.440;2023-07-09T00:30:02;98821.00;;;19.94;48.20
73016;BME280;61893;50.074;14.440;2023-07-09T00:32:28;98825.78;;;19.79;48.41
73016;BME280;61893;50.074;14.440;2023-07-09T00:34:54;98823.72;;;19.74;48.77
73016;BME280;61893;50.074;14.440;2023-07-09T00:37:24;98824.94;;;19.78;49.15
73016;BME280;61893;50.074;14.440;2023-07-09T00:39:53;98829.94;;;19.82;48.93
73016;BME280;61893;50.074;14.440;2023-07-09T00:42:22;98822.47;;;19.84;49.21
73016;BME280;61893;50.074;14.440;2023-07-09T00:45:17;98821.66;;;19.83;49.18
73016;BME280;61893;50.074;14.440;2023-07-09T00:47:53;98823.53;;;19.89;49.23
73016;BME280;61893;50.074;14.440;2023-07-09T00:53:28;98814.97;;;19.79;49.91
73016;BME280;61893;50.074;14.440;2023-07-09T00:56:02;98810.63;;;19.85;49.97
73016;BME280;61893;50.074;14.440;2023-07-09T00:58:31;98814.16;;;19.78;49.99
73016;BME280;61893;50.074;14.440;2023-07-09T01:01:03;98820.78;;;19.69;50.10
73016;BME280;61893;50.074;14.440;2023-07-09T01:03:38;98825.28;;;19.55;50.50
73016;BME280;61893;50.074;14.440;2023-07-09T01:06:06;98817.78;;;19.51;50.25
73016;BME280;61893;50.074;14.440;2023-07-09T01:08:35;98822.53;;;19.42;50.67
73016;BME280;61893;50.074;14.440;2023-07-09T01:11:01;98817.91;;;19.29;51.02
73016;BME280;61893;50.074;14.440;2023-07-09T01:13:30;98825.59;;;19.26;51.34
73016;BME280;61893;50.074;14.440;2023-07-09T01:16:00;98820.38;;;19.18;51.39
73016;BME280;61893;50.074;14.440;2023-07-09T01:18:26;98816.03;;;19.23;51.16
73016;BME280;61893;50.074;14.440;2023-07-09T01:21:03;98824.06;;;19.17;51.33
73016;BME280;61893;50.074;14.440;2023-07-09T01:23:33;98826.81;;;19.23;51.21
73016;BME280;61893;50.074;14.440;2023-07-09T01:26:00;98820.38;;;19.18;51.13
73016;BME280;61893;50.074;14.440;2023-07-09T01:28:26;98824.88;;;19.10;51.54
73016;BME280;61893;50.074;14.440;2023-07-09T01:30:52;98822.97;;;18.98;51.62
73016;BME280;61893;50.074;14.440;2023-07-09T01:33:20;98831.22;;;18.89;52.05
73016;BME280;61893;50.074;14.440;2023-07-09T01:35:47;98826.81;;;18.88;52.54
73016;BME280;61893;50.074;14.440;2023-07-09T01:38:13;98826.50;;;18.70;52.97
73016;BME280;61893;50.074;14.440;2023-07-09T01:40:41;98834.72;;;18.62;53.25
73016;BME280;61893;50.074;14.440;2023-07-09T01:43:07;98831.16;;;18.55;53.65
73016;BME280;61893;50.074;14.440;2023-07-09T01:45:35;98830.47;;;18.46;53.78
73016;BME280;61893;50.074;14.440;2023-07-09T01:48:05;98833.31;;;18.38;53.92
73016;BME280;61893;50.074;14.440;2023-07-09T01:50:32;98831.88;;;18.42;53.97
73016;BME280;61893;50.074;14.440;2023-07-09T01:52:58;98832.50;;;18.37;54.21
73016;BME280;61893;50.074;14.440;2023-07-09T01:55:24;98843.25;;;18.37;54.44
73016;BME280;61893;50.074;14.440;2023-07-09T01:57:50;98834.94;;;18.32;54.13
73016;BME280;61893;50.074;14.440;2023-07-09T02:00:18;98838.63;;;18.31;54.36
73016;BME280;61893;50.074;14.440;2023-07-09T02:02:45;98833.00;;;18.26;54.57
73016;BME280;61893;50.074;14.440;2023-07-09T02:05:14;98829.09;;;18.29;54.32
73016;BME280;61893;50.074;14.440;2023-07-09T02:07:40;98832.03;;;18.34;53.46
73016;BME280;61893;50.074;14.440;2023-07-09T02:10:06;98828.09;;;18.36;53.72
73016;BME280;61893;50.074;14.440;2023-07-09T02:12:32;98828.75;;;18.38;53.35
73016;BME280;61893;50.074;14.440;2023-07-09T02:14:58;98833.97;;;18.40;53.21
73016;BME280;61893;50.074;14.440;2023-07-09T02:17:24;98833.31;;;18.38;53.51
73016;BME280;61893;50.074;14.440;2023-07-09T02:19:50;98834.28;;;18.30;54.33
73016;BME280;61893;50.074;14.440;2023-07-09T02:22:16;98839.38;;;18.18;54.36
73016;BME280;61893;50.074;14.440;2023-07-09T02:24:42;98836.22;;;18.15;54.36
73016;BME280;61893;50.074;14.440;2023-07-09T02:27:09;98833.06;;;18.11;54.24
73016;BME280;61893;50.074;14.440;2023-07-09T02:29:36;98833.72;;;18.13;54.37
73016;BME280;61893;50.074;14.440;2023-07-09T02:32:02;98831.75;;;18.00;54.71
73016;BME280;61893;50.074;14.440;2023-07-09T02:34:31;98832.13;;;17.97;55.09
73016;BME280;61893;50.074;14.440;2023-07-09T02:36:58;98839.13;;;17.92;55.16
73016;BME280;61893;50.074;14.440;2023-07-09T02:39:25;98843.53;;;17.78;55.78
73016;BME280;61893;50.074;14.440;2023-07-09T02:41:51;98839.81;;;17.79;55.82
73016;BME280;61893;50.074;14.440;2023-07-09T02:44:17;98847.22;;;17.77;55.96
73016;BME280;61893;50.074;14.440;2023-07-09T02:46:44;98841.25;;;17.60;56.66
73016;BME280;61893;50.074;14.440;2023-07-09T02:49:12;98842.06;;;17.61;56.68
73016;BME280;61893;50.074;14.440;2023-07-09T02:51:39;98845.59;;;17.61;56.74
73016;BME280;61893;50.074;14.440;2023-07-09T02:54:06;98847.00;;;17.57;56.56
73016;BME280;61893;50.074;14.440;2023-07-09T02:56:32;98848.84;;;17.56;56.64
73016;BME280;61893;50.074;14.440;2023-07-09T02:58:58;98852.28;;;17.50;56.74
73016;BME280;61893;50.074;14.440;2023-07-09T03:01:24;98845.44;;;17.48;56.82
73016;BME280;61893;50.074;14.440;2023-07-09T03:03:56;98852.03;;;17.45;57.20
73016;BME280;61893;50.074;14.440;2023-07-09T03:06:23;98851.94;;;17.39;57.20
73016;BME280;61893;50.074;14.440;2023-07-09T03:08:50;98848.31;;;17.46;57.21
73016;BME280;61893;50.074;14.440;2023-07-09T03:11:18;98852.47;;;17.64;56.44
73016;BME280;61893;50.074;14.440;2023-07-09T03:13:45;98852.47;;;17.64;56.26
73016;BME280;61893;50.074;14.440;2023-07-09T03:16:12;98846.13;;;17.71;56.22
73016;BME280;61893;50.074;14.440;2023-07-09T03:18:38;98852.50;;;17.70;56.28
73016;BME280;61893;50.074;14.440;2023-07-09T03:21:04;98857.63;;;17.80;55.87
73016;BME280;61893;50.074;14.440;2023-07-09T03:23:30;98859.47;;;17.79;56.00
73016;BME280;61893;50.074;14.440;2023-07-09T03:25:56;98870.16;;;17.73;56.02
73016;BME280;61893;50.074;14.440;2023-07-09T03:28:23;98865.72;;;17.80;55.76
73016;BME280;61893;50.074;14.440;2023-07-09T03:30:49;98869.41;;;17.79;55.95
73016;BME280;61893;50.074;14.440;2023-07-09T03:33:18;98876.09;;;17.83;55.87
73016;BME280;61893;50.074;14.440;2023-07-09T03:35:44;98867.63;;;17.86;55.72
73016;BME280;61893;50.074;14.440;2023-07-09T03:38:10;98874.03;;;17.85;55.69
73016;BME280;61893;50.074;14.440;2023-07-09T03:40:37;98875.00;;;17.99;54.63
73016;BME280;61893;50.074;14.440;2023-07-09T03:43:04;98883.16;;;18.06;54.75
73016;BME280;61893;50.074;14.440;2023-07-09T03:45:34;98886.56;;;18.14;54.61
73016;BME280;61893;50.074;14.440;2023-07-09T03:47:59;98886.75;;;18.34;54.45
73016;BME280;61893;50.074;14.440;2023-07-09T03:50:26;98877.72;;;19.40;52.04
73016;BME280;61893;50.074;14.440;2023-07-09T03:52:52;98878.81;;;20.07;49.56
73016;BME280;61893;50.074;14.440;2023-07-09T03:55:18;98874.69;;;20.44;48.63
73016;BME280;61893;50.074;14.440;2023-07-09T03:57:44;98872.38;;;20.94;47.24
73016;BME280;61893;50.074;14.440;2023-07-09T04:00:10;98873.41;;;21.71;44.86
73016;BME280;61893;50.074;14.440;2023-07-09T04:02:38;98880.22;;;21.87;44.60
73016;BME280;61893;50.074;14.440;2023-07-09T04:05:05;98886.13;;;22.66;42.68
73016;BME280;61893;50.074;14.440;2023-07-09T04:07:34;98882.97;;;22.12;43.83
73016;BME280;61893;50.074;14.440;2023-07-09T04:10:00;98888.72;;;22.79;42.43
73016;BME280;61893;50.074;14.440;2023-07-09T04:12:26;98897.41;;;23.13;41.72
73016;BME280;61893;50.074;14.440;2023-07-09T04:14:52;98886.78;;;23.30;41.81
73016;BME280;61893;50.074;14.440;2023-07-09T04:17:17;98892.97;;;23.55;40.66
73016;BME280;61893;50.074;14.440;2023-07-09T04:19:43;98902.03;;;24.28;39.08
73016;BME280;61893;50.074;14.440;2023-07-09T04:22:13;98889.03;;;23.51;40.10
73016;BME280;61893;50.074;14.440;2023-07-09T04:24:39;98893.31;;;23.96;39.53
73016;BME280;61893;50.074;14.440;2023-07-09T04:27:05;98896.44;;;24.11;39.43
73016;BME280;61893;50.074;14.440;2023-07-09T04:29:32;98905.31;;;24.07;39.43
73016;BME280;61893;50.074;14.440;2023-07-09T04:32:04;98899.94;;;24.95;37.67
73016;BME280;61893;50.074;14.440;2023-07-09T04:34:30;98906.50;;;24.22;38.71
73016;BME280;61893;50.074;14.440;2023-07-09T04:36:56;98905.50;;;24.05;38.58
73016;BME280;61893;50.074;14.440;2023-07-09T04:39:23;98905.84;;;25.04;36.47
73016;BME280;61893;50.074;14.440;2023-07-09T04:41:48;98904.53;;;25.42;35.82
73016;BME280;61893;50.074;14.440;2023-07-09T04:44:15;98907.50;;;25.29;35.98
73016;BME280;61893;50.074;14.440;2023-07-09T04:46:41;98913.56;;;25.19;36.18
73016;BME280;61893;50.074;14.440;2023-07-09T04:49:08;98912.31;;;25.62;35.20
73016;BME280;61893;50.074;14.440;2023-07-09T04:51:35;98907.06;;;25.84;34.35
73016;BME280;61893;50.074;14.440;2023-07-09T04:54:01;98910.34;;;27.28;32.23
73016;BME280;61893;50.074;14.440;2023-07-09T04:56:30;98912.97;;;27.61;31.90
73016;BME280;61893;50.074;14.440;2023-07-09T04:58:56;98920.75;;;27.14;32.54
73016;BME280;61893;50.074;14.440;2023-07-09T05:01:22;98916.31;;;27.08;32.58
73016;BME280;61893;50.074;14.440;2023-07-09T05:03:52;98921.75;;;27.42;32.39
73016;BME280;61893;50.074;14.440;2023-07-09T05:06:18;98919.88;;;27.25;32.25
73016;BME280;61893;50.074;14.440;2023-07-09T05:08:44;98922.72;;;27.35;32.25
73016;BME280;61893;50.074;14.440;2023-07-09T05:11:09;98924.09;;;27.77;32.25
73016;BME280;61893;50.074;14.440;2023-07-09T05:13:38;98926.06;;;27.04;32.88
73016;BME280;61893;50.074;14.440;2023-07-09T05:16:07;98923.34;;;28.58;30.02
73016;BME280;61893;50.074;14.440;2023-07-09T05:18:33;98930.91;;;28.78;29.81
73016;BME280;61893;50.074;14.440;2023-07-09T05:20:58;98930.91;;;28.45;30.29
73016;BME280;61893;50.074;14.440;2023-07-09T05:23:25;98925.63;;;28.39;30.48
73016;BME280;61893;50.074;14.440;2023-07-09T05:26:01;98926.38;;;28.61;30.01
73016;BME280;61893;50.074;14.440;2023-07-09T05:28:28;98923.78;;;27.51;31.78
73016;BME280;61893;50.074;14.440;2023-07-09T05:30:55;98928.44;;;27.95;31.71
73016;BME280;61893;50.074;14.440;2023-07-09T05:33:21;98930.31;;;28.70;30.44
73016;BME280;61893;50.074;14.440;2023-07-09T05:35:47;98925.53;;;28.88;30.15
73016;BME280;61893;50.074;14.440;2023-07-09T05:38:14;98939.75;;;31.14;26.94
73016;BME280;61893;50.074;14.440;2023-07-09T05:40:41;98934.84;;;29.72;28.58
73016;BME280;61893;50.074;14.440;2023-07-09T05:43:08;98933.16;;;30.34;27.32
73016;BME280;61893;50.074;14.440;2023-07-09T05:45:35;98937.31;;;31.03;26.95
73016;BME280;61893;50.074;14.440;2023-07-09T05:48:01;98936.28;;;31.94;25.73
73016;BME280;61893;50.074;14.440;2023-07-09T05:50:28;98935.84;;;31.56;25.63
73016;BME280;61893;50.074;14.440;2023-07-09T05:52:54;98932.91;;;31.17;26.44
73016;BME280;61893;50.074;14.440;2023-07-09T05:55:20;98934.56;;;28.88;29.94
73016;BME280;61893;50.074;14.440;2023-07-09T05:57:46;98926.59;;;31.01;26.27
73016;BME280;61893;50.074;14.440;2023-07-09T06:00:13;98930.16;;;31.17;26.34
73016;BME280;61893;50.074;14.440;2023-07-09T06:02:39;98933.50;;;32.83;24.53
73016;BME280;61893;50.074;14.440;2023-07-09T06:05:23;98938.66;;;32.90;23.83
73016;BME280;61893;50.074;14.440;2023-07-09T06:08:04;98936.81;;;33.14;23.31
73016;BME280;61893;50.074;14.440;2023-07-09T06:10:30;98930.16;;;31.12;25.81
73016;BME280;61893;50.074;14.440;2023-07-09T06:13:14;98929.56;;;30.33;27.20
73016;BME280;61893;50.074;14.440;2023-07-09T06:15:55;98929.44;;;33.63;22.83
73016;BME280;61893;50.074;14.440;2023-07-09T06:18:35;98931.84;;;34.31;22.12
73016;BME280;61893;50.074;14.440;2023-07-09T06:21:16;98940.41;;;35.33;21.17
73016;BME280;61893;50.074;14.440;2023-07-09T06:23:57;98938.84;;;31.65;24.63
73016;BME280;61893;50.074;14.440;2023-07-09T06:26:38;98934.16;;;34.43;21.84
73016;BME280;61893;50.074;14.440;2023-07-09T06:29:19;98934.78;;;33.49;22.73
73016;BME280;61893;50.074;14.440;2023-07-09T06:32:00;98942.00;;;35.67;20.78
73016;BME280;61893;50.074;14.440;2023-07-09T06:34:58;98943.78;;;33.84;22.40
73016;BME280;61893;50.074;14.440;2023-07-09T06:37:36;98954.09;;;36.71;19.55
73016;BME280;61893;50.074;14.440;2023-07-09T06:40:18;98948.94;;;36.42;19.57
73016;BME280;61893;50.074;14.440;2023-07-09T06:42:48;98950.38;;;35.90;19.85
73016;BME280;61893;50.074;14.440;2023-07-09T06:45:20;98945.78;;;36.49;19.46
73016;BME280;61893;50.074;14.440;2023-07-09T06:48:01;98946.06;;;34.01;22.25
73016;BME280;61893;50.074;14.440;2023-07-09T06:50:58;98947.94;;;34.81;21.33
73016;BME280;61893;50.074;14.440;2023-07-09T06:53:41;98947.22;;;37.45;18.44
73016;BME280;61893;50.074;14.440;2023-07-09T06:56:24;98946.34;;;38.24;18.00
73016;BME280;61893;50.074;14.440;2023-07-09T06:59:05;98941.63;;;37.05;18.86
73016;BME280;61893;50.074;14.440;2023-07-09T07:01:45;98944.41;;;38.42;17.82
73016;BME280;61893;50.074;14.440;2023-07-09T07:04:27;98941.75;;;39.54;16.83
73016;BME280;61893;50.074;14.440;2023-07-09T07:06:53;98948.09;;;39.63;16.49
73016;BME280;61893;50.074;14.440;2023-07-09T07:09:35;98944.94;;;39.82;16.15
73016;BME280;61893;50.074;14.440;2023-07-09T07:12:40;98945.53;;;38.85;16.57
73016;BME280;61893;50.074;14.440;2023-07-09T07:15:22;98947.81;;;37.64;17.79
73016;BME280;61893;50.074;14.440;2023-07-09T07:18:20;98959.56;;;37.61;17.95
73016;BME280;61893;50.074;14.440;2023-07-09T07:21:21;98950.06;;;37.54;17.83
73016;BME280;61893;50.074;14.440;2023-07-09T07:24:14;98949.09;;;40.18;15.96
73016;BME280;61893;50.074;14.440;2023-07-09T07:27:17;98954.31;;;41.24;14.79
73016;BME280;61893;50.074;14.440;2023-07-09T07:29:58;98953.69;;;41.64;14.59
73016;BME280;61893;50.074;14.440;2023-07-09T07:32:42;98949.44;;;41.00;15.14
73016;BME280;61893;50.074;14.440;2023-07-09T07:35:25;98951.31;;;39.82;15.97
73016;BME280;61893;50.074;14.440;2023-07-09T07:38:05;98952.13;;;40.13;15.58
73016;BME280;61893;50.074;14.440;2023-07-09T07:40:50;98957.88;;;40.07;15.70
73016;BME280;61893;50.074;14.440;2023-07-09T07:43:31;98954.63;;;40.35;15.34
73016;BME280;61893;50.074;14.440;2023-07-09T07:46:11;98953.09;;;40.80;14.83
73016;BME280;61893;50.074;14.440;2023-07-09T07:48:41;98951.63;;;40.94;14.71
73016;BME280;61893;50.074;14.440;2023-07-09T07:51:22;98952.31;;;41.12;14.78
73016;BME280;61893;50.074;14.440;2023-07-09T07:54:03;98945.28;;;41.64;14.30
73016;BME280;61893;50.074;14.440;2023-07-09T07:56:58;98952.34;;;41.49;13.99
73016;BME280;61893;50.074;14.440;2023-07-09T07:59:25;98940.44;;;42.38;13.29
73016;BME280;61893;50.074;14.440;2023-07-09T08:02:36;98941.78;;;41.79;13.66
73016;BME280;61893;50.074;14.440;2023-07-09T08:05:18;98946.06;;;42.14;13.04
73016;BME280;61893;50.074;14.440;2023-07-09T08:08:41;98939.34;;;42.83;13.34
73016;BME280;61893;50.074;14.440;2023-07-09T08:11:22;98931.94;;;42.35;13.56
73016;BME280;61893;50.074;14.440;2023-07-09T08:14:24;98938.16;;;42.56;13.07
73016;BME280;61893;50.074;14.440;2023-07-09T08:17:31;98941.66;;;41.51;13.70
73016;BME280;61893;50.074;14.440;2023-07-09T08:20:32;98939.13;;;40.80;14.35
73016;BME280;61893;50.074;14.440;2023-07-09T08:23:23;98933.00;;;39.73;14.79
73016;BME280;61893;50.074;14.440;2023-07-09T08:26:15;98932.38;;;40.18;14.70
73016;BME280;61893;50.074;14.440;2023-07-09T08:28:56;98938.56;;;41.19;14.15
73016;BME280;61893;50.074;14.440;2023-07-09T08:31:25;98933.53;;;41.71;14.13
73016;BME280;61893;50.074;14.440;2023-07-09T08:33:51;98931.34;;;40.73;14.52
73016;BME280;61893;50.074;14.440;2023-07-09T08:36:18;98922.25;;;40.22;15.20
73016;BME280;61893;50.074;14.440;2023-07-09T08:38:44;98928.19;;;40.12;14.83
73016;BME280;61893;50.074;14.440;2023-07-09T08:50:16;98924.09;;;42.00;13.34
73016;BME280;61893;50.074;14.440;2023-07-09T08:52:58;98928.34;;;42.62;13.10
73016;BME280;61893;50.074;14.440;2023-07-09T08:55:57;98929.88;;;41.33;13.45
73016;BME280;61893;50.074;14.440;2023-07-09T08:58:55;98920.84;;;39.48;14.57
73016;BME280;61893;50.074;14.440;2023-07-09T09:01:59;98915.63;;;40.26;14.08
73016;BME280;61893;50.074;14.440;2023-07-09T09:04:47;98918.03;;;37.48;16.96
73016;BME280;61893;50.074;14.440;2023-07-09T09:13:02;98922.22;;;40.43;14.38
73016;BME280;61893;50.074;14.440;2023-07-09T09:15:47;98922.84;;;40.27;14.74
73016;BME280;61893;50.074;14.440;2023-07-09T09:18:23;98921.63;;;41.49;13.85
73016;BME280;61893;50.074;14.440;2023-07-09T09:21:24;98930.00;;;41.37;13.53
73016;BME280;61893;50.074;14.440;2023-07-09T09:23:58;98917.50;;;40.14;14.14
73016;BME280;61893;50.074;14.440;2023-07-09T09:26:33;98918.75;;;40.04;15.16
73016;BME280;61893;50.074;14.440;2023-07-09T09:29:14;98926.56;;;40.11;14.59
73016;BME280;61893;50.074;14.440;2023-07-09T09:31:45;98914.81;;;38.72;15.52
73016;BME280;61893;50.074;14.440;2023-07-09T09:34:28;98913.09;;;40.13;14.66
73016;BME280;61893;50.074;14.440;2023-07-09T09:37:01;98920.38;;;40.26;15.01
73016;BME280;61893;50.074;14.440;2023-07-09T09:39:27;98912.06;;;40.17;14.40
73016;BME280;61893;50.074;14.440;2023-07-09T09:42:11;98916.56;;;37.50;16.46
73016;BME280;61893;50.074;14.440;2023-07-09T09:44:45;98911.53;;;38.27;15.41
73016;BME280;61893;50.074;14.440;2023-07-09T09:47:12;98913.00;;;38.33;14.96
73016;BME280;61893;50.074;14.440;2023-07-09T09:49:44;98905.47;;;37.50;15.64
73016;BME280;61893;50.074;14.440;2023-07-09T09:52:15;98911.22;;;37.00;15.75
73016;BME280;61893;50.074;14.440;2023-07-09T09:54:53;98904.03;;;35.54;17.14
73016;BME280;61893;50.074;14.440;2023-07-09T09:57:22;98906.16;;;36.12;16.92
73016;BME280;61893;50.074;14.440;2023-07-09T09:59:54;98902.25;;;35.99;17.34
73016;BME280;61893;50.074;14.440;2023-07-09T10:02:22;98901.78;;;35.42;17.42
73016;BME280;61893;50.074;14.440;2023-07-09T10:04:52;98904.06;;;34.61;17.99
73016;BME280;61893;50.074;14.440;2023-07-09T10:07:32;98905.38;;;35.84;17.26
73016;BME280;61893;50.074;14.440;2023-07-09T10:10:01;98904.75;;;35.18;17.07
73016;BME280;61893;50.074;14.440;2023-07-09T10:12:39;98901.38;;;35.49;16.96
73016;BME280;61893;50.074;14.440;2023-07-09T10:21:15;98899.19;;;33.77;18.69
73016;BME280;61893;50.074;14.440;2023-07-09T10:26:59;98896.63;;;33.99;17.99
73016;BME280;61893;50.074;14.440;2023-07-09T10:29:31;98898.75;;;34.07;17.79
73016;BME280;61893;50.074;14.440;2023-07-09T10:40:39;98888.97;;;33.53;18.59
73016;BME280;61893;50.074;14.440;2023-07-09T10:43:41;98888.69;;;33.55;18.80
73016;BME280;61893;50.074;14.440;2023-07-09T10:46:24;98890.09;;;33.52;18.69
73016;BME280;61893;50.074;14.440;2023-07-09T10:48:52;98888.75;;;33.45;18.79
73016;BME280;61893;50.074;14.440;2023-07-09T10:51:32;98894.22;;;32.67;19.52
73016;BME280;61893;50.074;14.440;2023-07-09T10:54:24;98892.91;;;32.60;19.84
73016;BME280;61893;50.074;14.440;2023-07-09T10:59:52;98888.03;;;32.81;19.08
73016;BME280;61893;50.074;14.440;2023-07-09T11:02:35;98893.25;;;32.82;19.15
73016;BME280;61893;50.074;14.440;2023-07-09T11:05:17;98882.34;;;32.33;20.07
73016;BME280;61893;50.074;14.440;2023-07-09T11:08:05;98880.69;;;32.37;19.97
73016;BME280;61893;50.074;14.440;2023-07-09T11:11:01;98881.69;;;32.06;20.40
73016;BME280;61893;50.074;14.440;2023-07-09T11:13:48;98884.19;;;32.08;20.50
73016;BME280;61893;50.074;14.440;2023-07-09T11:16:32;98884.22;;;32.03;20.52
73016;BME280;61893;50.074;14.440;2023-07-09T11:19:04;98876.22;;;32.41;19.81
73016;BME280;61893;50.074;14.440;2023-07-09T11:21:44;98867.66;;;32.47;19.73
73016;BME280;61893;50.074;14.440;2023-07-09T11:24:33;98875.41;;;32.40;19.90
73016;BME280;61893;50.074;14.440;2023-07-09T11:27:00;98870.91;;;32.55;20.14
73016;BME280;61893;50.074;14.440;2023-07-09T11:29:27;98875.91;;;32.82;19.59
73016;BME280;61893;50.074;14.440;2023-07-09T11:31:55;98871.97;;;32.59;19.40
73016;BME280;61893;50.074;14.440;2023-07-09T11:34:28;98876.25;;;32.75;19.15
73016;BME280;61893;50.074;14.440;2023-07-09T11:37:13;98872.63;;;32.80;18.41
73016;BME280;61893;50.074;14.440;2023-07-09T11:45:11;98869.75;;;32.61;18.83
73016;BME280;61893;50.074;14.440;2023-07-09T11:47:45;98868.78;;;32.46;18.58
73016;BME280;61893;50.074;14.440;2023-07-09T11:53:41;98862.88;;;32.19;18.93
73016;BME280;61893;50.074;14.440;2023-07-09T11:56:09;98853.16;;;31.92;18.81
73016;BME280;61893;50.074;14.440;2023-07-09T11:58:35;98849.03;;;31.84;19.29
73016;BME280;61893;50.074;14.440;2023-07-09T12:01:19;98846.13;;;32.15;18.96
73016;BME280;61893;50.074;14.440;2023-07-09T12:03:48;98838.09;;;32.24;19.57
73016;BME280;61893;50.074;14.440;2023-07-09T12:06:23;98844.25;;;32.45;19.48
73016;BME280;61893;50.074;14.440;2023-07-09T12:08:52;98841.81;;;32.38;19.16
73016;BME280;61893;50.074;14.440;2023-07-09T12:11:20;98845.28;;;32.20;19.57
73016;BME280;61893;50.074;14.440;2023-07-09T12:14:10;98834.34;;;32.09;19.62
73016;BME280;61893;50.074;14.440;2023-07-09T12:16:42;98840.38;;;32.51;19.58
73016;BME280;61893;50.074;14.440;2023-07-09T12:19:17;98829.13;;;32.77;19.09
73016;BME280;61893;50.074;14.440;2023-07-09T12:21:45;98841.81;;;33.02;18.71
73016;BME280;61893;50.074;14.440;2023-07-09T12:24:25;98830.38;;;33.13;18.00
73016;BME280;61893;50.074;14.440;2023-07-09T12:27:00;98833.72;;;33.10;18.73
73016;BME280;61893;50.074;14.440;2023-07-09T12:29:28;98834.81;;;33.14;18.44
73016;BME280;61893;50.074;14.440;2023-07-09T12:31:57;98826.09;;;33.02;18.40
73016;BME280;61893;50.074;14.440;2023-07-09T12:34:24;98822.28;;;32.98;18.34
73016;BME280;61893;50.074;14.440;2023-07-09T12:37:18;98820.63;;;32.68;19.08
73016;BME280;61893;50.074;14.440;2023-07-09T12:40:19;98815.06;;;33.02;18.36
73016;BME280;61893;50.074;14.440;2023-07-09T12:43:31;98814.25;;;32.43;19.36
73016;BME280;61893;50.074;14.440;2023-07-09T12:46:13;98806.22;;;32.76;18.87
73016;BME280;61893;50.074;14.440;2023-07-09T12:48:43;98801.34;;;32.68;18.93
73016;BME280;61893;50.074;14.440;2023-07-09T12:51:15;98797.38;;;32.79;19.08
73016;BME280;61893;50.074;14.440;2023-07-09T12:54:13;98795.84;;;32.97;18.06
73016;BME280;61893;50.074;14.440;2023-07-09T12:56:55;98788.44;;;33.16;18.85
73016;BME280;61893;50.074;14.440;2023-07-09T12:59:38;98786.63;;;33.50;18.00
73016;BME280;61893;50.074;14.440;2023-07-09T13:02:20;98778.56;;;33.58;17.86
73016;BME280;61893;50.074;14.440;2023-07-09T13:05:05;98783.75;;;33.79;17.69
73016;BME280;61893;50.074;14.440;2023-07-09T13:07:54;98784.78;;;34.02;17.38
73016;BME280;61893;50.074;14.440;2023-07-09T13:10:48;98778.84;;;33.95;17.30
73016;BME280;61893;50.074;14.440;2023-07-09T13:13:32;98780.25;;;33.73;17.18
73016;BME280;61893;50.074;14.440;2023-07-09T13:16:13;98778.59;;;33.34;17.39
73016;BME280;61893;50.074;14.440;2023-07-09T13:18:54;98768.91;;;33.13;17.95
73016;BME280;61893;50.074;14.440;2023-07-09T13:21:34;98767.72;;;33.43;17.68
73016;BME280;61893;50.074;14.440;2023-07-09T13:24:09;98772.75;;;33.36;17.68
73016;BME280;61893;50.074;14.440;2023-07-09T13:26:52;98775.34;;;33.27;17.22
73016;BME280;61893;50.074;14.440;2023-07-09T13:29:33;98768.53;;;33.43;17.80
73016;BME280;61893;50.074;14.440;2023-07-09T13:32:00;98774.16;;;33.57;17.72
73016;BME280;61893;50.074;14.440;2023-07-09T13:34:28;98777.84;;;33.48;18.14
73016;BME280;61893;50.074;14.440;2023-07-09T13:36:59;98777.00;;;33.71;17.38
73016;BME280;61893;50.074;14.440;2023-07-09T13:39:25;98768.88;;;33.80;17.31
73016;BME280;61893;50.074;14.440;2023-07-09T13:41:51;98765.56;;;33.78;17.29
73016;BME280;61893;50.074;14.440;2023-07-09T13:44:29;98771.28;;;33.43;17.06
73016;BME280;61893;50.074;14.440;2023-07-09T13:47:16;98767.84;;;33.33;17.75
73016;BME280;61893;50.074;14.440;2023-07-09T13:49:56;98771.50;;;33.47;17.53
73016;BME280;61893;50.074;14.440;2023-07-09T13:52:37;98770.63;;;33.90;17.67
73016;BME280;61893;50.074;14.440;2023-07-09T13:55:20;98766.38;;;34.16;16.88
73016;BME280;61893;50.074;14.440;2023-07-09T13:58:01;98762.13;;;34.38;17.25
73016;BME280;61893;50.074;14.440;2023-07-09T14:00:43;98764.16;;;34.32;16.64
73016;BME280;61893;50.074;14.440;2023-07-09T14:03:28;98762.97;;;34.38;17.37
73016;BME280;61893;50.074;14.440;2023-07-09T14:06:17;98758.31;;;34.34;16.83
73016;BME280;61893;50.074;14.440;2023-07-09T14:08:59;98754.09;;;34.22;16.54
73016;BME280;61893;50.074;14.440;2023-07-09T14:11:49;98746.59;;;33.90;16.85
73016;BME280;61893;50.074;14.440;2023-07-09T14:14:32;98753.47;;;33.93;17.13
73016;BME280;61893;50.074;14.440;2023-07-09T14:16:59;98749.97;;;33.49;17.44